sensor_id;sensor_type;location;lat;lon;timestamp;pressure;altitude;pressure_sealevel;temperature;humidity
74778;BME280;63298;53.164;8.610;2023-07-29T00:01:31;100788.88;;;21.87;77.06
74778;BME280;63298;53.164;8.610;2023-07-29T00:03:56;100772.75;;;21.79;77.05
74778;BME280;63298;53.164;8.610;2023-07-29T00:06:22;100789.81;;;21.83;77.04
74778;BME280;63298;53.164;8.610;2023-07-29T00:08:47;100777.84;;;21.77;77.28
74778;BME280;63298;53.164;8.610;2023-07-29T00:11:13;100773.69;;;21.75;77.23
74778;BME280;63298;53.164;8.610;2023-07-29T00:13:38;100770.66;;;21.71;77.30
74778;BME280;63298;53.164;8.610;2023-07-29T00:16:04;100771.59;;;21.67;77.25
74778;BME280;63298;53.164;8.610;2023-07-29T00:18:29;100759.03;;;21.64;77.19
74778;BME280;63298;53.164;8.610;2023-07-29T00:20:54;100762.78;;;21.60;77.27
74778;BME280;63298;53.164;8.610;2023-07-29T00:23:20;100759.16;;;21.59;77.29
74778;BME280;63298;53.164;8.610;2023-07-29T00:25:45;100748.22;;;21.58;77.56
74778;BME280;63298;53.164;8.610;2023-07-29T00:28:11;100739.28;;;21.56;77.25
74778;BME280;63298;53.164;8.610;2023-07-29T00:30:37;100740.31;;;21.60;77.42
74778;BME280;63298;53.164;8.610;2023-07-29T00:33:02;100741.16;;;21.60;77.15
74778;BME280;63298;53.164;8.610;2023-07-29T00:35:27;100739.78;;;21.58;77.20
74778;BME280;63298;53.164;8.610;2023-07-29T00:37:53;100747.91;;;21.59;77.28
74778;BME280;63298;53.164;8.610;2023-07-29T00:40:22;100751.88;;;21.58;77.34
74778;BME280;63298;53.164;8.610;2023-07-29T00:42:48;100747.38;;;21.57;77.11
74778;BME280;63298;53.164;8.610;2023-07-29T00:45:14;100739.69;;;21.49;77.13
74778;BME280;63298;53.164;8.610;2023-07-29T00:47:40;100746.75;;;21.46;77.05
74778;BME280;63298;53.164;8.610;2023-07-29T00:50:07;100740.75;;;21.39;77.36
74778;BME280;63298;53.164;8.610;2023-07-29T00:52:32;100734.41;;;21.34;77.25
74778;BME280;63298;53.164;8.610;2023-07-29T00:54:58;100741.97;;;21.33;77.31
74778;BME280;63298;53.164;8.610;2023-07-29T00:57:24;100739.28;;;21.28;77.15
74778;BME280;63298;53.164;8.610;2023-07-29T00:59:49;100741.25;;;21.28;77.45
74778;BME280;63298;53.164;8.610;2023-07-29T01:02:15;100746.34;;;21.26;77.46
74778;BME280;63298;53.164;8.610;2023-07-29T01:04:40;100751.13;;;21.25;77.33
74778;BME280;63298;53.164;8.610;2023-07-29T01:07:19;100746.97;;;21.23;77.31
74778;BME280;63298;53.164;8.610;2023-07-29T01:09:55;100749.38;;;21.16;77.54
74778;BME280;63298;53.164;8.610;2023-07-29T01:12:27;100747.75;;;21.09;77.36
74778;BME280;63298;53.164;8.610;2023-07-29T01:15:01;100750.25;;;21.11;77.42
74778;BME280;63298;53.164;8.610;2023-07-29T01:17:43;100745.03;;;21.04;77.45
74778;BME280;63298;53.164;8.610;2023-07-29T01:20:14;100753.66;;;21.08;77.38
74778;BME280;63298;53.164;8.610;2023-07-29T01:22:41;100749.72;;;21.09;77.65
74778;BME280;63298;53.164;8.610;2023-07-29T01:25:06;100750.03;;;21.07;77.64
74778;BME280;63298;53.164;8.610;2023-07-29T01:27:32;100747.56;;;21.06;77.61
74778;BME280;63298;53.164;8.610;2023-07-29T01:29:57;100745.03;;;21.04;77.78
74778;BME280;63298;53.164;8.610;2023-07-29T01:32:25;100741.69;;;21.02;77.54
74778;BME280;63298;53.164;8.610;2023-07-29T01:35:21;100737.84;;;20.98;77.67
74778;BME280;63298;53.164;8.610;2023-07-29T01:37:50;100732.25;;;20.98;77.74
74778;BME280;63298;53.164;8.610;2023-07-29T01:40:17;100734.22;;;20.98;77.70
74778;BME280;63298;53.164;8.610;2023-07-29T01:42:43;100723.22;;;21.01;77.61
74778;BME280;63298;53.164;8.610;2023-07-29T01:45:08;100722.41;;;21.01;77.69
74778;BME280;63298;53.164;8.610;2023-07-29T01:47:34;100732.44;;;21.02;77.67
74778;BME280;63298;53.164;8.610;2023-07-29T01:49:59;100726.03;;;21.01;77.57
74778;BME280;63298;53.164;8.610;2023-07-29T01:52:24;100730.72;;;21.06;77.45
74778;BME280;63298;53.164;8.610;2023-07-29T01:54:50;100723.94;;;21.07;77.54
74778;BME280;63298;53.164;8.610;2023-07-29T01:57:15;100722.59;;;21.04;77.37
74778;BME280;63298;53.164;8.610;2023-07-29T01:59:40;100726.25;;;21.05;77.56
74778;BME280;63298;53.164;8.610;2023-07-29T02:02:06;100720.94;;;21.03;77.61
74778;BME280;63298;53.164;8.610;2023-07-29T02:04:31;100722.06;;;21.02;77.42
74778;BME280;63298;53.164;8.610;2023-07-29T02:06:56;100723.22;;;21.01;77.52
74778;BME280;63298;53.164;8.610;2023-07-29T02:09:22;100717.63;;;21.01;77.41
74778;BME280;63298;53.164;8.610;2023-07-29T02:11:47;100707.44;;;20.92;77.39
74778;BME280;63298;53.164;8.610;2023-07-29T02:14:12;100717.09;;;20.99;77.45
74778;BME280;63298;53.164;8.610;2023-07-29T02:16:38;100720.19;;;20.98;77.44
74778;BME280;63298;53.164;8.610;2023-07-29T02:19:03;100715.50;;;20.93;77.55
74778;BME280;63298;53.164;8.610;2023-07-29T02:21:28;100718.41;;;20.88;77.58
74778;BME280;63298;53.164;8.610;2023-07-29T02:23:53;100712.41;;;20.81;77.57
74778;BME280;63298;53.164;8.610;2023-07-29T02:26:19;100710.19;;;20.78;77.66
74778;BME280;63298;53.164;8.610;2023-07-29T02:28:44;100707.91;;;20.80;77.69
74778;BME280;63298;53.164;8.610;2023-07-29T02:31:20;100705.84;;;20.72;77.70
74778;BME280;63298;53.164;8.610;2023-07-29T02:33:46;100708.63;;;20.72;77.63
74778;BME280;63298;53.164;8.610;2023-07-29T02:36:12;100706.34;;;20.74;77.63
74778;BME280;63298;53.164;8.610;2023-07-29T02:38:39;100705.09;;;20.66;77.49
74778;BME280;63298;53.164;8.610;2023-07-29T02:41:04;100712.66;;;20.66;77.74
74778;BME280;63298;53.164;8.610;2023-07-29T02:43:31;100696.75;;;20.61;77.63
74778;BME280;63298;53.164;8.610;2023-07-29T02:45:56;100707.16;;;20.61;77.79
74778;BME280;63298;53.164;8.610;2023-07-29T02:48:21;100706.31;;;20.60;77.67
74778;BME280;63298;53.164;8.610;2023-07-29T02:50:47;100707.75;;;20.58;77.79
74778;BME280;63298;53.164;8.610;2023-07-29T02:53:12;100709.72;;;20.57;77.80
74778;BME280;63298;53.164;8.610;2023-07-29T02:55:41;100715.41;;;20.52;77.75
74778;BME280;63298;53.164;8.610;2023-07-29T02:58:07;100705.13;;;20.48;77.71
74778;BME280;63298;53.164;8.610;2023-07-29T03:00:33;100697.03;;;20.46;77.68
74778;BME280;63298;53.164;8.610;2023-07-29T03:02:59;100700.97;;;20.45;77.78
74778;BME280;63298;53.164;8.610;2023-07-29T03:05:27;100693.47;;;20.41;77.60
74778;BME280;63298;53.164;8.610;2023-07-29T03:07:52;100696.28;;;20.41;77.69
74778;BME280;63298;53.164;8.610;2023-07-29T03:10:18;100697.41;;;20.40;77.78
74778;BME280;63298;53.164;8.610;2023-07-29T03:12:44;100705.00;;;20.39;77.80
74778;BME280;63298;53.164;8.610;2023-07-29T03:15:09;100703.31;;;20.38;77.62
74778;BME280;63298;53.164;8.610;2023-07-29T03:17:35;100700.31;;;20.35;77.74
74778;BME280;63298;53.164;8.610;2023-07-29T03:20:00;100712.25;;;20.40;77.54
74778;BME280;63298;53.164;8.610;2023-07-29T03:22:26;100709.47;;;20.40;77.65
74778;BME280;63298;53.164;8.610;2023-07-29T03:24:51;100717.88;;;20.40;77.68
74778;BME280;63298;53.164;8.610;2023-07-29T03:27:17;100720.97;;;20.39;77.80
74778;BME280;63298;53.164;8.610;2023-07-29T03:29:42;100712.97;;;20.32;77.79
74778;BME280;63298;53.164;8.610;2023-07-29T03:32:07;100717.13;;;20.35;77.77
74778;BME280;63298;53.164;8.610;2023-07-29T03:34:33;100714.09;;;20.31;77.81
74778;BME280;63298;53.164;8.610;2023-07-29T03:37:00;100717.13;;;20.35;77.83
74778;BME280;63298;53.164;8.610;2023-07-29T03:39:25;100721.03;;;20.34;77.83
74778;BME280;63298;53.164;8.610;2023-07-29T03:41:51;100717.41;;;20.33;77.96
74778;BME280;63298;53.164;8.610;2023-07-29T03:44:16;100713.25;;;20.31;77.97
74778;BME280;63298;53.164;8.610;2023-07-29T03:46:42;100713.25;;;20.31;78.05
74778;BME280;63298;53.164;8.610;2023-07-29T03:49:07;100703.44;;;20.28;77.78
74778;BME280;63298;53.164;8.610;2023-07-29T03:51:32;100700.97;;;20.26;78.05
74778;BME280;63298;53.164;8.610;2023-07-29T03:53:57;100693.47;;;20.22;78.16
74778;BME280;63298;53.164;8.610;2023-07-29T03:56:23;100687.88;;;20.22;78.14
74778;BME280;63298;53.164;8.610;2023-07-29T03:58:48;100690.97;;;20.20;78.20
74778;BME280;63298;53.164;8.610;2023-07-29T04:01:13;100671.00;;;20.08;78.13
74778;BME280;63298;53.164;8.610;2023-07-29T04:03:39;100683.41;;;20.21;78.35
74778;BME280;63298;53.164;8.610;2023-07-29T04:06:04;100687.03;;;20.21;78.40
74778;BME280;63298;53.164;8.610;2023-07-29T04:08:29;100699.59;;;20.24;78.35
74778;BME280;63298;53.164;8.610;2023-07-29T04:10:55;100701.56;;;20.23;78.17
74778;BME280;63298;53.164;8.610;2023-07-29T04:13:20;100689.00;;;20.21;78.20
74778;BME280;63298;53.164;8.610;2023-07-29T04:15:45;100696.78;;;20.24;77.87
74778;BME280;63298;53.164;8.610;2023-07-29T04:18:11;100690.16;;;20.20;78.17
74778;BME280;63298;53.164;8.610;2023-07-29T04:20:36;100681.00;;;20.14;78.15
74778;BME280;63298;53.164;8.610;2023-07-29T04:23:01;100685.66;;;20.19;78.30
74778;BME280;63298;53.164;8.610;2023-07-29T04:25:27;100689.84;;;20.21;78.24
74778;BME280;63298;53.164;8.610;2023-07-29T04:27:53;100689.53;;;20.23;78.33
74778;BME280;63298;53.164;8.610;2023-07-29T04:30:18;100694.31;;;20.22;78.25
74778;BME280;63298;53.164;8.610;2023-07-29T04:32:43;100700.72;;;20.23;78.39
74778;BME280;63298;53.164;8.610;2023-07-29T04:35:09;100704.06;;;20.25;78.38
74778;BME280;63298;53.164;8.610;2023-07-29T04:37:34;100699.00;;;20.27;78.26
74778;BME280;63298;53.164;8.610;2023-07-29T04:39:59;100698.69;;;20.28;78.38
74778;BME280;63298;53.164;8.610;2023-07-29T04:42:24;100694.47;;;20.31;78.24
74778;BME280;63298;53.164;8.610;2023-07-29T04:44:50;100695.00;;;20.33;78.13
74778;BME280;63298;53.164;8.610;2023-07-29T04:47:15;100695.81;;;20.34;78.07
74778;BME280;63298;53.164;8.610;2023-07-29T04:49:40;100696.66;;;20.34;78.22
74778;BME280;63298;53.164;8.610;2023-07-29T04:52:06;100684.63;;;20.34;78.17
74778;BME280;63298;53.164;8.610;2023-07-29T04:54:31;100682.34;;;20.36;78.19
74778;BME280;63298;53.164;8.610;2023-07-29T04:56:57;100676.47;;;20.37;78.18
74778;BME280;63298;53.164;8.610;2023-07-29T04:59:22;100665.25;;;20.37;78.20
74778;BME280;63298;53.164;8.610;2023-07-29T05:01:47;100670.53;;;20.39;78.10
74778;BME280;63298;53.164;8.610;2023-07-29T05:04:12;100658.19;;;20.40;78.37
74778;BME280;63298;53.164;8.610;2023-07-29T05:06:38;100665.16;;;20.42;78.29
74778;BME280;63298;53.164;8.610;2023-07-29T05:09:17;100670.97;;;20.46;78.36
74778;BME280;63298;53.164;8.610;2023-07-29T05:11:43;100663.31;;;20.51;78.16
74778;BME280;63298;53.164;8.610;2023-07-29T05:14:08;100665.78;;;20.53;78.08
74778;BME280;63298;53.164;8.610;2023-07-29T05:16:34;100659.59;;;20.56;78.09
74778;BME280;63298;53.164;8.610;2023-07-29T05:18:59;100669.25;;;20.63;77.94
74778;BME280;63298;53.164;8.610;2023-07-29T05:21:24;100660.81;;;20.63;78.06
74778;BME280;63298;53.164;8.610;2023-07-29T05:23:50;100654.09;;;20.64;78.08
74778;BME280;63298;53.164;8.610;2023-07-29T05:26:15;100651.59;;;20.63;78.07
74778;BME280;63298;53.164;8.610;2023-07-29T05:28:40;100645.88;;;20.68;78.19
74778;BME280;63298;53.164;8.610;2023-07-29T05:31:06;100636.44;;;20.64;77.97
74778;BME280;63298;53.164;8.610;2023-07-29T05:33:31;100651.72;;;20.72;78.11
74778;BME280;63298;53.164;8.610;2023-07-29T05:35:56;100662.31;;;20.75;78.02
74778;BME280;63298;53.164;8.610;2023-07-29T05:38:22;100658.16;;;20.72;77.60
74778;BME280;63298;53.164;8.610;2023-07-29T05:40:48;100664.47;;;20.78;77.87
74778;BME280;63298;53.164;8.610;2023-07-29T05:43:13;100667.00;;;20.79;77.79
74778;BME280;63298;53.164;8.610;2023-07-29T05:45:39;100665.84;;;20.80;77.92
74778;BME280;63298;53.164;8.610;2023-07-29T05:48:04;100666.34;;;20.82;77.89
74778;BME280;63298;53.164;8.610;2023-07-29T05:50:29;100665.75;;;20.85;77.95
74778;BME280;63298;53.164;8.610;2023-07-29T05:52:55;100661.81;;;20.86;77.99
74778;BME280;63298;53.164;8.610;2023-07-29T05:55:20;100662.31;;;20.88;77.88
74778;BME280;63298;53.164;8.610;2023-07-29T05:57:45;100661.38;;;20.93;77.78
74778;BME280;63298;53.164;8.610;2023-07-29T06:00:11;100656.94;;;20.92;77.76
74778;BME280;63298;53.164;8.610;2023-07-29T06:02:37;100668.88;;;20.97;77.77
74778;BME280;63298;53.164;8.610;2023-07-29T06:05:02;100666.06;;;20.97;77.78
74778;BME280;63298;53.164;8.610;2023-07-29T06:07:27;100675.00;;;20.99;77.79
74778;BME280;63298;53.164;8.610;2023-07-29T06:09:53;100674.38;;;21.02;77.79
74778;BME280;63298;53.164;8.610;2023-07-29T06:12:18;100676.03;;;21.03;77.38
74778;BME280;63298;53.164;8.610;2023-07-29T06:14:43;100674.38;;;21.02;77.77
74778;BME280;63298;53.164;8.610;2023-07-29T06:17:08;100665.66;;;21.04;77.85
74778;BME280;63298;53.164;8.610;2023-07-29T06:19:34;100667.63;;;21.03;77.88
74778;BME280;63298;53.164;8.610;2023-07-29T06:21:59;100673.44;;;21.07;77.98
74778;BME280;63298;53.164;8.610;2023-07-29T06:24:24;100682.09;;;21.10;77.92
74778;BME280;63298;53.164;8.610;2023-07-29T06:26:50;100680.97;;;21.11;77.97
74778;BME280;63298;53.164;8.610;2023-07-29T06:29:15;100677.72;;;21.04;78.08
74778;BME280;63298;53.164;8.610;2023-07-29T06:31:40;100685.50;;;21.07;78.25
74778;BME280;63298;53.164;8.610;2023-07-29T06:34:06;100685.41;;;21.12;78.17
74778;BME280;63298;53.164;8.610;2023-07-29T06:36:31;100692.91;;;21.17;78.20
74778;BME280;63298;53.164;8.610;2023-07-29T06:38:56;100691.56;;;21.15;78.27
74778;BME280;63298;53.164;8.610;2023-07-29T06:41:22;100692.59;;;21.19;78.34
74778;BME280;63298;53.164;8.610;2023-07-29T06:43:47;100697.91;;;21.20;78.39
74778;BME280;63298;53.164;8.610;2023-07-29T06:46:12;100703.72;;;21.24;78.28
74778;BME280;63298;53.164;8.610;2023-07-29T06:48:37;100688.56;;;21.25;78.04
74778;BME280;63298;53.164;8.610;2023-07-29T06:51:09;100681.59;;;21.22;78.15
74778;BME280;63298;53.164;8.610;2023-07-29T06:53:34;100674.53;;;21.25;78.02
74778;BME280;63298;53.164;8.610;2023-07-29T06:55:59;100672.75;;;21.29;78.00
74778;BME280;63298;53.164;8.610;2023-07-29T06:58:25;100666.50;;;21.32;77.95
74778;BME280;63298;53.164;8.610;2023-07-29T07:00:50;100663.28;;;21.38;77.56
74778;BME280;63298;53.164;8.610;2023-07-29T07:03:15;100672.31;;;21.49;77.40
74778;BME280;63298;53.164;8.610;2023-07-29T07:05:41;100680.00;;;21.57;77.18
74778;BME280;63298;53.164;8.610;2023-07-29T07:08:06;100671.81;;;21.61;77.08
74778;BME280;63298;53.164;8.610;2023-07-29T07:10:31;100675.72;;;21.73;76.86
74778;BME280;63298;53.164;8.610;2023-07-29T07:12:56;100677.75;;;21.81;76.58
74778;BME280;63298;53.164;8.610;2023-07-29T07:15:22;100678.16;;;21.88;76.43
74778;BME280;63298;53.164;8.610;2023-07-29T07:17:47;100683.69;;;21.93;75.96
74778;BME280;63298;53.164;8.610;2023-07-29T07:20:13;100679.63;;;22.00;75.93
74778;BME280;63298;53.164;8.610;2023-07-29T07:22:38;100681.16;;;22.06;75.71
74778;BME280;63298;53.164;8.610;2023-07-29T07:25:03;100677.91;;;22.12;75.46
74778;BME280;63298;53.164;8.610;2023-07-29T07:27:29;100682.25;;;22.18;74.81
74778;BME280;63298;53.164;8.610;2023-07-29T07:29:54;100693.38;;;22.23;74.13
74778;BME280;63298;53.164;8.610;2023-07-29T07:32:19;100692.56;;;22.23;73.73
74778;BME280;63298;53.164;8.610;2023-07-29T07:34:45;100697.88;;;22.24;73.68
74778;BME280;63298;53.164;8.610;2023-07-29T07:37:11;100684.88;;;22.15;73.09
74778;BME280;63298;53.164;8.610;2023-07-29T07:39:37;100694.78;;;22.12;72.92
74778;BME280;63298;53.164;8.610;2023-07-29T07:42:02;100699.38;;;22.08;73.29
74778;BME280;63298;53.164;8.610;2023-07-29T07:44:30;100695.53;;;22.04;72.84
74778;BME280;63298;53.164;8.610;2023-07-29T07:46:56;100691.78;;;22.09;72.60
74778;BME280;63298;53.164;8.610;2023-07-29T07:49:22;100703.31;;;22.07;72.86
74778;BME280;63298;53.164;8.610;2023-07-29T07:51:47;100703.38;;;22.16;72.43
74778;BME280;63298;53.164;8.610;2023-07-29T07:54:12;100707.56;;;22.18;72.00
74778;BME280;63298;53.164;8.610;2023-07-29T07:56:38;100712.53;;;22.21;71.81
74778;BME280;63298;53.164;8.610;2023-07-29T07:59:03;100698.28;;;22.18;71.41
74778;BME280;63298;53.164;8.610;2023-07-29T08:01:37;100695.34;;;22.23;71.45
74778;BME280;63298;53.164;8.610;2023-07-29T08:04:03;100692.94;;;22.30;71.35
74778;BME280;63298;53.164;8.610;2023-07-29T08:06:28;100696.78;;;22.34;70.83
74778;BME280;63298;53.164;8.610;2023-07-29T08:08:54;100691.53;;;22.41;70.87
74778;BME280;63298;53.164;8.610;2023-07-29T08:11:19;100692.63;;;22.54;70.83
74778;BME280;63298;53.164;8.610;2023-07-29T08:13:44;100681.81;;;22.69;70.00
74778;BME280;63298;53.164;8.610;2023-07-29T08:16:10;100676.03;;;22.74;68.98
74778;BME280;63298;53.164;8.610;2023-07-29T08:18:35;100681.59;;;22.88;69.04
74778;BME280;63298;53.164;8.610;2023-07-29T08:21:01;100680.50;;;22.98;68.98
74778;BME280;63298;53.164;8.610;2023-07-29T08:23:26;100675.00;;;22.93;68.23
74778;BME280;63298;53.164;8.610;2023-07-29T08:25:56;100685.13;;;22.94;68.04
74778;BME280;63298;53.164;8.610;2023-07-29T08:28:22;100687.72;;;22.90;67.74
74778;BME280;63298;53.164;8.610;2023-07-29T08:30:48;100695.88;;;23.00;67.78
74778;BME280;63298;53.164;8.610;2023-07-29T08:33:14;100696.22;;;22.99;67.60
74778;BME280;63298;53.164;8.610;2023-07-29T08:35:39;100697.88;;;23.00;67.36
74778;BME280;63298;53.164;8.610;2023-07-29T08:38:05;100695.06;;;23.00;67.21
74778;BME280;63298;53.164;8.610;2023-07-29T08:40:31;100686.13;;;22.98;66.75
74778;BME280;63298;53.164;8.610;2023-07-29T08:43:04;100704.31;;;23.00;66.05
74778;BME280;63298;53.164;8.610;2023-07-29T08:45:34;100698.38;;;23.02;67.12
74778;BME280;63298;53.164;8.610;2023-07-29T08:48:02;100704.69;;;23.07;66.75
74778;BME280;63298;53.164;8.610;2023-07-29T08:50:32;100705.19;;;23.09;66.66
74778;BME280;63298;53.164;8.610;2023-07-29T08:52:59;100698.41;;;23.10;67.22
74778;BME280;63298;53.164;8.610;2023-07-29T08:55:24;100692.16;;;23.13;65.81
74778;BME280;63298;53.164;8.610;2023-07-29T08:57:50;100694.13;;;23.13;66.38
74778;BME280;63298;53.164;8.610;2023-07-29T09:00:16;100692.09;;;23.05;66.33
74778;BME280;63298;53.164;8.610;2023-07-29T09:02:42;100690.78;;;23.02;66.13
74778;BME280;63298;53.164;8.610;2023-07-29T09:05:08;100688.31;;;23.09;66.37
74778;BME280;63298;53.164;8.610;2023-07-29T09:07:34;100683.72;;;23.13;66.51
74778;BME280;63298;53.164;8.610;2023-07-29T09:10:01;100690.22;;;23.31;66.03
74778;BME280;63298;53.164;8.610;2023-07-29T09:12:27;100694.28;;;23.47;65.70
74778;BME280;63298;53.164;8.610;2023-07-29T09:14:52;100681.22;;;23.60;65.64
74778;BME280;63298;53.164;8.610;2023-07-29T09:17:17;100696.81;;;23.66;64.88
74778;BME280;63298;53.164;8.610;2023-07-29T09:19:47;100687.53;;;23.57;64.74
74778;BME280;63298;53.164;8.610;2023-07-29T09:22:22;100700.94;;;23.60;64.75
74778;BME280;63298;53.164;8.610;2023-07-29T09:24:47;100696.81;;;23.57;64.40
74778;BME280;63298;53.164;8.610;2023-07-29T09:27:26;100700.41;;;23.49;64.22
74778;BME280;63298;53.164;8.610;2023-07-29T09:29:53;100697.13;;;23.56;64.75
74778;BME280;63298;53.164;8.610;2023-07-29T09:32:22;100679.41;;;23.64;64.11
74778;BME280;63298;53.164;8.610;2023-07-29T09:34:47;100681.91;;;23.74;63.90
74778;BME280;63298;53.164;8.610;2023-07-29T09:37:22;100687.06;;;23.89;62.36
74778;BME280;63298;53.164;8.610;2023-07-29T09:39:49;100686.09;;;24.02;63.38
74778;BME280;63298;53.164;8.610;2023-07-29T09:42:22;100683.13;;;24.16;62.89
74778;BME280;63298;53.164;8.610;2023-07-29T09:44:50;100677.19;;;24.26;63.35
74778;BME280;63298;53.164;8.610;2023-07-29T09:47:23;100664.53;;;24.32;63.15
74778;BME280;63298;53.164;8.610;2023-07-29T09:49:49;100664.19;;;24.42;63.12
74778;BME280;63298;53.164;8.610;2023-07-29T09:52:19;100670.00;;;24.55;62.60
74778;BME280;63298;53.164;8.610;2023-07-29T09:54:45;100662.84;;;24.66;62.41
74778;BME280;63298;53.164;8.610;2023-07-29T09:57:14;100668.41;;;24.83;62.00
74778;BME280;63298;53.164;8.610;2023-07-29T09:59:39;100655.63;;;24.94;60.54
74778;BME280;63298;53.164;8.610;2023-07-29T10:02:13;100652.63;;;24.99;60.82
74778;BME280;63298;53.164;8.610;2023-07-29T10:04:38;100653.94;;;25.02;60.88
74778;BME280;63298;53.164;8.610;2023-07-29T10:07:05;100647.25;;;25.15;60.91
74778;BME280;63298;53.164;8.610;2023-07-29T10:09:31;100660.81;;;25.30;60.56
74778;BME280;63298;53.164;8.610;2023-07-29T10:11:57;100660.16;;;25.24;60.00
74778;BME280;63298;53.164;8.610;2023-07-29T10:14:22;100657.72;;;25.14;59.91
74778;BME280;63298;53.164;8.610;2023-07-29T10:16:49;100656.97;;;24.88;59.96
74778;BME280;63298;53.164;8.610;2023-07-29T10:19:15;100664.63;;;24.79;59.76
74778;BME280;63298;53.164;8.610;2023-07-29T10:21:41;100660.31;;;24.81;59.37
74778;BME280;63298;53.164;8.610;2023-07-29T10:24:14;100653.84;;;24.81;59.23
74778;BME280;63298;53.164;8.610;2023-07-29T10:26:41;100663.78;;;24.78;59.89
74778;BME280;63298;53.164;8.610;2023-07-29T10:29:12;100660.81;;;24.75;59.27
74778;BME280;63298;53.164;8.610;2023-07-29T10:31:38;100657.16;;;24.74;57.40
74778;BME280;63298;53.164;8.610;2023-07-29T10:34:04;100658.13;;;24.87;58.74
74778;BME280;63298;53.164;8.610;2023-07-29T10:36:30;100650.78;;;25.03;58.50
74778;BME280;63298;53.164;8.610;2023-07-29T10:38:55;100658.19;;;25.16;57.88
74778;BME280;63298;53.164;8.610;2023-07-29T10:41:22;100646.56;;;25.18;57.53
74778;BME280;63298;53.164;8.610;2023-07-29T10:43:50;100645.03;;;25.29;57.32
74778;BME280;63298;53.164;8.610;2023-07-29T10:46:20;100637.69;;;25.28;55.84
74778;BME280;63298;53.164;8.610;2023-07-29T10:48:56;100644.56;;;25.48;54.36
74778;BME280;63298;53.164;8.610;2023-07-29T10:51:28;100653.53;;;25.50;55.81
74778;BME280;63298;53.164;8.610;2023-07-29T10:54:11;100656.59;;;25.36;56.16
74778;BME280;63298;53.164;8.610;2023-07-29T10:56:40;100656.38;;;25.20;55.27
74778;BME280;63298;53.164;8.610;2023-07-29T11:01:41;100656.16;;;24.87;57.11
74778;BME280;63298;53.164;8.610;2023-07-29T11:09:57;100663.88;;;25.08;56.16
74778;BME280;63298;53.164;8.610;2023-07-29T11:12:45;100664.75;;;25.00;56.15
74778;BME280;63298;53.164;8.610;2023-07-29T11:17:39;100651.47;;;25.00;57.61
74778;BME280;63298;53.164;8.610;2023-07-29T11:20:05;100664.00;;;25.20;57.42
74778;BME280;63298;53.164;8.610;2023-07-29T11:22:31;100663.03;;;25.45;56.62
74778;BME280;63298;53.164;8.610;2023-07-29T11:24:56;100664.69;;;25.46;56.23
74778;BME280;63298;53.164;8.610;2023-07-29T11:27:22;100663.66;;;25.51;56.62
74778;BME280;63298;53.164;8.610;2023-07-29T11:29:48;100663.44;;;25.35;55.37
74778;BME280;63298;53.164;8.610;2023-07-29T11:32:14;100662.28;;;25.27;56.41
74778;BME280;63298;53.164;8.610;2023-07-29T11:34:41;100654.97;;;25.26;56.76
74778;BME280;63298;53.164;8.610;2023-07-29T11:37:06;100672.94;;;25.30;56.72
74778;BME280;63298;53.164;8.610;2023-07-29T11:39:32;100665.81;;;25.24;56.40
74778;BME280;63298;53.164;8.610;2023-07-29T11:41:58;100675.69;;;25.10;56.54
74778;BME280;63298;53.164;8.610;2023-07-29T11:44:24;100680.69;;;25.04;56.77
74778;BME280;63298;53.164;8.610;2023-07-29T11:46:50;100672.25;;;24.96;56.70
74778;BME280;63298;53.164;8.610;2023-07-29T11:49:15;100671.41;;;24.86;56.85
74778;BME280;63298;53.164;8.610;2023-07-29T11:51:41;100678.41;;;24.80;57.16
74778;BME280;63298;53.164;8.610;2023-07-29T11:54:08;100676.78;;;24.71;57.16
74778;BME280;63298;53.164;8.610;2023-07-29T11:56:34;100680.75;;;24.70;57.34
74778;BME280;63298;53.164;8.610;2023-07-29T11:59:01;100673.94;;;24.71;57.75
74778;BME280;63298;53.164;8.610;2023-07-29T12:01:27;100683.25;;;24.71;57.83
74778;BME280;63298;53.164;8.610;2023-07-29T12:03:53;100672.94;;;24.75;57.57
74778;BME280;63298;53.164;8.610;2023-07-29T12:06:19;100678.59;;;24.75;57.25
74778;BME280;63298;53.164;8.610;2023-07-29T12:08:44;100666.66;;;24.70;57.00
74778;BME280;63298;53.164;8.610;2023-07-29T12:11:10;100683.03;;;24.93;56.79
74778;BME280;63298;53.164;8.610;2023-07-29T12:13:38;100669.53;;;25.08;55.36
74778;BME280;63298;53.164;8.610;2023-07-29T12:16:06;100670.09;;;25.30;56.07
74778;BME280;63298;53.164;8.610;2023-07-29T12:18:35;100678.97;;;25.50;55.86
74778;BME280;63298;53.164;8.610;2023-07-29T12:21:01;100675.28;;;25.58;55.21
74778;BME280;63298;53.164;8.610;2023-07-29T12:23:27;100667.94;;;25.65;54.88
74778;BME280;63298;53.164;8.610;2023-07-29T12:25:57;100666.91;;;25.70;52.77
74778;BME280;63298;53.164;8.610;2023-07-29T12:28:23;100658.91;;;25.72;54.73
74778;BME280;63298;53.164;8.610;2023-07-29T12:30:53;100662.03;;;25.79;54.08
74778;BME280;63298;53.164;8.610;2023-07-29T12:33:36;100665.94;;;26.07;54.01
74778;BME280;63298;53.164;8.610;2023-07-29T12:36:02;100668.19;;;26.23;53.78
74778;BME280;63298;53.164;8.610;2023-07-29T12:38:28;100668.69;;;26.25;53.37
74778;BME280;63298;53.164;8.610;2023-07-29T12:40:54;100664.84;;;26.41;53.35
74778;BME280;63298;53.164;8.610;2023-07-29T12:43:22;100670.41;;;26.50;52.70
74778;BME280;63298;53.164;8.610;2023-07-29T12:45:51;100655.69;;;26.56;52.87
74778;BME280;63298;53.164;8.610;2023-07-29T12:48:16;100646.13;;;26.49;52.51
74778;BME280;63298;53.164;8.610;2023-07-29T12:50:42;100660.31;;;26.61;52.47
74778;BME280;63298;53.164;8.610;2023-07-29T12:53:08;100648.16;;;26.60;52.27
74778;BME280;63298;53.164;8.610;2023-07-29T12:55:34;100651.69;;;26.57;52.46
74778;BME280;63298;53.164;8.610;2023-07-29T12:57:59;100646.81;;;26.46;52.02